createdAt,value
2018-12-14T00:02:24.608Z,2.70
2018-12-14T00:04:52.106Z,2.70
2018-12-14T00:07:19.670Z,2.60
2018-12-14T00:09:47.142Z,2.60
2018-12-14T00:12:14.748Z,2.60
2018-12-14T00:14:42.317Z,2.60
2018-12-14T00:17:09.997Z,2.50
2018-12-14T00:19:37.639Z,2.50
2018-12-14T00:22:05.344Z,2.50
2018-12-14T00:24:32.876Z,2.60
2018-12-14T00:27:00.462Z,2.60
2018-12-14T00:29:27.989Z,2.60
2018-12-14T00:31:55.562Z,2.60
2018-12-14T00:34:23.077Z,2.60
2018-12-14T00:36:50.558Z,2.50
2018-12-14T00:39:18.135Z,2.50
2018-12-14T00:41:51.714Z,2.50
2018-12-14T00:44:15.169Z,2.50
2018-12-14T00:46:44.722Z,2.40
2018-12-14T00:49:12.498Z,2.50
2018-12-14T00:51:40.201Z,2.40
2018-12-14T00:54:07.963Z,2.40
2018-12-14T00:56:35.771Z,2.30
2018-12-14T00:59:03.510Z,2.30
2018-12-14T01:01:30.982Z,2.30
2018-12-14T01:03:58.483Z,2.30
2018-12-14T01:06:26.182Z,2.30
2018-12-14T01:08:53.680Z,2.20
2018-12-14T01:11:21.183Z,2.20
2018-12-14T01:13:48.718Z,2.20
2018-12-14T01:16:16.255Z,2.20
2018-12-14T01:18:43.946Z,2.20
2018-12-14T01:21:11.552Z,2.20
2018-12-14T01:23:39.206Z,2.20
2018-12-14T01:26:06.728Z,2.20
2018-12-14T01:28:34.290Z,2.20
2018-12-14T01:31:01.802Z,2.20
2018-12-14T01:33:29.360Z,2.20
2018-12-14T01:35:56.868Z,2.20
2018-12-14T01:38:24.394Z,2.20
2018-12-14T01:40:51.896Z,2.30
2018-12-14T01:43:19.507Z,2.20
2018-12-14T01:45:47.208Z,2.30
2018-12-14T01:48:14.789Z,2.30
2018-12-14T01:50:42.317Z,2.40
2018-12-14T01:53:09.816Z,2.40
2018-12-14T01:55:37.318Z,2.40
2018-12-14T01:58:04.808Z,2.50
2018-12-14T02:00:32.368Z,2.50
2018-12-14T02:02:59.913Z,2.50
2018-12-14T02:05:27.585Z,2.50
2018-12-14T02:07:55.202Z,2.50
2018-12-14T02:10:22.836Z,2.50
2018-12-14T02:12:50.354Z,2.50
2018-12-14T02:15:17.883Z,2.50
2018-12-14T02:17:45.401Z,2.50
2018-12-14T02:20:13.097Z,2.50
2018-12-14T02:22:40.760Z,2.50
2018-12-14T02:25:08.252Z,2.50
2018-12-14T02:27:35.868Z,2.50
2018-12-14T02:30:15.330Z,2.50
2018-12-14T02:32:42.975Z,2.50
2018-12-14T02:35:10.640Z,2.60
2018-12-14T02:37:38.221Z,2.60
2018-12-14T02:40:05.754Z,2.60
2018-12-14T02:42:33.300Z,2.60
2018-12-14T02:45:01.370Z,2.60
2018-12-14T02:47:28.940Z,2.60
2018-12-14T02:49:56.405Z,2.60
2018-12-14T02:52:24.002Z,2.60
2018-12-14T02:54:51.458Z,2.60
2018-12-14T02:57:19.065Z,2.60
2018-12-14T02:59:46.566Z,2.60
2018-12-14T03:02:14.046Z,2.50
2018-12-14T03:04:41.528Z,2.60
2018-12-14T03:07:16.250Z,2.60
2018-12-14T03:09:43.699Z,2.50
2018-12-14T03:12:11.307Z,2.50
2018-12-14T03:14:39.067Z,2.50
2018-12-14T03:17:07.031Z,2.50
2018-12-14T03:19:34.527Z,2.50
2018-12-14T03:22:02.550Z,2.50
2018-12-14T03:24:30.065Z,2.50
2018-12-14T03:27:04.536Z,2.50
2018-12-14T03:29:32.162Z,2.60
2018-12-14T03:31:59.705Z,2.50
2018-12-14T03:34:27.359Z,2.50
2018-12-14T03:36:54.850Z,2.50
2018-12-14T03:39:22.349Z,2.50
2018-12-14T03:41:49.856Z,2.50
2018-12-14T03:44:17.360Z,2.40
2018-12-14T03:46:45.205Z,2.40
2018-12-14T03:49:12.823Z,2.40
2018-12-14T03:51:40.620Z,2.40
2018-12-14T03:54:08.177Z,2.40
2018-12-14T03:56:35.695Z,2.40
2018-12-14T03:59:03.318Z,2.40
2018-12-14T04:01:30.834Z,2.30
2018-12-14T04:03:58.559Z,2.30
2018-12-14T04:06:25.983Z,2.30
2018-12-14T04:08:53.483Z,2.30
2018-12-14T04:11:21.203Z,2.30
2018-12-14T04:13:48.677Z,2.30
2018-12-14T04:16:16.327Z,2.30
2018-12-14T04:18:44.387Z,2.30
2018-12-14T04:21:11.845Z,2.30
2018-12-14T04:23:40.277Z,2.30
2018-12-14T04:26:07.886Z,2.30
2018-12-14T04:28:35.918Z,2.30
2018-12-14T04:31:03.512Z,2.30
2018-12-14T04:33:31.367Z,2.30
2018-12-14T04:35:58.891Z,2.30
2018-12-14T04:38:26.406Z,2.30
2018-12-14T04:40:53.962Z,2.30
2018-12-14T04:43:21.487Z,2.30
2018-12-14T04:45:49.158Z,2.30
2018-12-14T04:48:16.733Z,2.30
2018-12-14T04:50:44.431Z,2.30
2018-12-14T04:53:11.995Z,2.20
2018-12-14T04:55:39.702Z,2.20
2018-12-14T04:58:07.244Z,2.10
2018-12-14T05:00:34.837Z,2.10
2018-12-14T05:03:02.359Z,2.10
2018-12-14T05:05:30.646Z,2.20
2018-12-14T05:07:58.249Z,2.20
2018-12-14T05:10:25.885Z,2.20
2018-12-14T05:12:56.312Z,2.20
2018-12-14T05:15:22.992Z,2.20
2018-12-14T05:17:50.565Z,2.20
2018-12-14T05:20:18.170Z,2.20
2018-12-14T05:22:45.791Z,2.20
2018-12-14T05:25:14.983Z,2.20
2018-12-14T05:27:42.516Z,2.30
2018-12-14T05:30:10.485Z,2.20
2018-12-14T05:32:38.150Z,2.20
2018-12-14T05:35:05.807Z,2.20
2018-12-14T05:37:33.365Z,2.20
2018-12-14T05:40:01.028Z,2.20
2018-12-14T05:42:28.599Z,2.20
2018-12-14T05:44:56.287Z,2.20
2018-12-14T05:47:23.957Z,2.30
2018-12-14T05:49:51.495Z,2.20
2018-12-14T05:52:19.067Z,2.30
2018-12-14T05:54:46.621Z,2.30
2018-12-14T05:57:14.209Z,2.30
2018-12-14T05:59:41.841Z,2.30
2018-12-14T06:02:09.845Z,2.30
2018-12-14T06:04:37.637Z,2.30
2018-12-14T06:07:05.265Z,2.30
2018-12-14T06:09:33.044Z,2.20
2018-12-14T06:12:01.173Z,2.20
2018-12-14T06:14:28.631Z,2.20
2018-12-14T06:16:56.339Z,2.20
2018-12-14T06:19:23.908Z,2.20
2018-12-14T06:21:52.661Z,2.20
2018-12-14T06:24:20.105Z,2.20
2018-12-14T06:26:47.665Z,2.20
2018-12-14T06:29:15.222Z,2.20
2018-12-14T06:31:42.874Z,2.20
2018-12-14T06:34:10.404Z,2.20
2018-12-14T06:36:38.200Z,2.20
2018-12-14T06:39:06.188Z,2.20
2018-12-14T06:41:36.367Z,2.20
2018-12-14T06:44:03.966Z,2.10
2018-12-14T06:46:31.522Z,2.10
2018-12-14T06:48:59.070Z,2.10
2018-12-14T06:51:26.672Z,2.10
2018-12-14T06:53:54.515Z,2.10
2018-12-14T06:56:22.064Z,2.10
2018-12-14T06:58:49.627Z,2.10
2018-12-14T07:01:17.200Z,2.20
2018-12-14T07:03:44.702Z,2.20
2018-12-14T07:06:12.240Z,2.10
2018-12-14T07:08:39.696Z,2.10
2018-12-14T07:11:07.302Z,2.10
2018-12-14T07:13:34.784Z,2.10
2018-12-14T07:16:02.428Z,2.10
2018-12-14T07:18:29.948Z,2.10
2018-12-14T07:20:57.635Z,2.10
2018-12-14T07:23:25.496Z,2.20
2018-12-14T07:25:53.040Z,2.20
2018-12-14T07:28:20.590Z,2.20
2018-12-14T07:30:48.097Z,2.20
2018-12-14T07:33:15.715Z,2.30
2018-12-14T07:35:43.164Z,2.20
2018-12-14T07:38:10.836Z,2.10
2018-12-14T07:40:38.302Z,2.20
2018-12-14T07:43:05.735Z,2.20
2018-12-14T07:45:33.312Z,2.20
2018-12-14T07:48:00.867Z,2.20
2018-12-14T07:50:28.368Z,2.20
2018-12-14T07:52:57.740Z,2.10
2018-12-14T07:55:25.640Z,2.10
2018-12-14T07:57:53.412Z,2.10
2018-12-14T08:00:20.936Z,2.20
2018-12-14T08:02:48.454Z,2.20
2018-12-14T08:05:16.004Z,2.30
2018-12-14T08:07:43.589Z,2.30
2018-12-14T08:10:11.247Z,2.30
2018-12-14T08:12:39.726Z,2.30
2018-12-14T08:15:11.353Z,2.30
2018-12-14T08:17:36.993Z,2.30
2018-12-14T08:20:04.666Z,2.30
2018-12-14T08:22:32.228Z,2.30
2018-12-14T08:24:59.778Z,2.30
2018-12-14T08:27:27.241Z,2.30
2018-12-14T08:29:54.751Z,2.30
2018-12-14T08:32:22.261Z,2.30
2018-12-14T08:34:51.137Z,2.30
2018-12-14T08:37:19.295Z,2.40
2018-12-14T08:39:46.799Z,2.40
2018-12-14T08:42:14.356Z,2.30
2018-12-14T08:44:42.061Z,2.30
2018-12-14T08:47:09.611Z,2.30
2018-12-14T08:49:37.133Z,2.30
2018-12-14T08:52:04.765Z,2.30
2018-12-14T08:54:32.344Z,2.30
2018-12-14T08:56:59.933Z,2.40
2018-12-14T08:59:27.623Z,2.40
2018-12-14T09:01:55.075Z,2.40
2018-12-14T09:04:22.580Z,2.30
2018-12-14T09:06:50.001Z,2.30
2018-12-14T09:09:17.505Z,2.30
2018-12-14T09:11:45.150Z,2.30
2018-12-14T09:14:12.748Z,2.30
2018-12-14T09:16:40.291Z,2.30
2018-12-14T09:19:07.845Z,2.30
2018-12-14T09:21:35.421Z,2.30
2018-12-14T09:24:03.019Z,2.30
2018-12-14T09:26:30.564Z,2.30
2018-12-14T09:28:58.352Z,2.30
2018-12-14T09:31:27.675Z,2.40
2018-12-14T09:33:55.237Z,2.40
2018-12-14T09:36:22.804Z,2.40
2018-12-14T09:38:50.372Z,2.40
2018-12-14T09:41:17.838Z,2.40
2018-12-14T09:43:45.624Z,2.30
2018-12-14T09:46:13.192Z,2.30
2018-12-14T09:48:41.089Z,2.30
2018-12-14T09:51:12.257Z,2.20
2018-12-14T09:53:38.393Z,2.20
2018-12-14T09:56:06.129Z,2.20
2018-12-14T09:58:33.825Z,2.30
2018-12-14T10:01:01.281Z,2.20
2018-12-14T10:03:28.949Z,2.20
2018-12-14T10:05:56.667Z,2.20
2018-12-14T10:08:24.384Z,2.30
2018-12-14T10:10:52.241Z,2.30
2018-12-14T10:13:20.299Z,2.30
2018-12-14T10:15:47.901Z,2.30
2018-12-14T10:18:15.507Z,2.20
2018-12-14T10:20:43.025Z,2.20
2018-12-14T10:23:10.587Z,2.20
2018-12-14T10:25:38.236Z,2.20
2018-12-14T10:28:05.975Z,2.30
2018-12-14T10:30:33.523Z,2.30
2018-12-14T10:33:01.096Z,2.30
2018-12-14T10:35:28.680Z,2.30
2018-12-14T10:37:56.255Z,2.30
2018-12-14T10:40:23.957Z,2.30
2018-12-14T10:42:51.675Z,2.40
2018-12-14T10:45:20.427Z,2.50
2018-12-14T10:47:48.035Z,2.50
2018-12-14T10:50:15.589Z,2.50
2018-12-14T10:52:43.135Z,2.50
2018-12-14T10:55:10.785Z,2.50
2018-12-14T10:57:38.656Z,2.40
2018-12-14T11:00:15.534Z,2.40
2018-12-14T11:02:43.074Z,2.50
2018-12-14T11:05:10.878Z,2.50
2018-12-14T11:07:38.389Z,2.50
2018-12-14T11:10:07.117Z,2.60
2018-12-14T11:12:34.811Z,2.70
2018-12-14T11:15:02.487Z,2.70
2018-12-14T11:17:30.004Z,2.80
2018-12-14T11:19:57.503Z,2.90
2018-12-14T11:22:25.025Z,2.90
2018-12-14T11:24:52.579Z,2.90
2018-12-14T11:27:20.176Z,2.90
2018-12-14T11:29:47.664Z,2.90
2018-12-14T11:32:15.187Z,3.00
2018-12-14T11:34:42.759Z,3.00
2018-12-14T11:37:10.449Z,3.00
2018-12-14T11:39:38.083Z,3.00
2018-12-14T11:42:05.571Z,3.00
2018-12-14T11:44:33.199Z,3.00
2018-12-14T11:47:00.739Z,3.10
2018-12-14T11:49:28.411Z,3.10
2018-12-14T11:51:55.979Z,3.10
2018-12-14T11:54:23.677Z,3.10
2018-12-14T11:56:51.285Z,3.20
2018-12-14T11:59:18.795Z,3.20
2018-12-14T12:01:46.371Z,3.10
2018-12-14T12:04:13.959Z,3.10
2018-12-14T12:06:41.784Z,3.00
2018-12-14T12:09:10.835Z,3.00
2018-12-14T12:11:38.359Z,3.00
2018-12-14T12:14:05.867Z,3.00
2018-12-14T12:16:33.427Z,3.00
2018-12-14T12:19:01.073Z,3.00
2018-12-14T12:21:28.830Z,3.00
2018-12-14T12:23:56.420Z,3.00
2018-12-14T12:26:23.945Z,2.90
2018-12-14T12:28:51.510Z,2.90
2018-12-14T12:31:19.317Z,2.80
2018-12-14T12:33:46.914Z,2.80
2018-12-14T12:36:14.327Z,2.80
2018-12-14T12:38:41.960Z,2.80
2018-12-14T12:41:09.501Z,2.80
2018-12-14T12:43:36.981Z,2.80
2018-12-14T12:46:04.649Z,2.80
2018-12-14T12:48:32.919Z,2.80
2018-12-14T12:51:03.342Z,2.80
2018-12-14T12:53:29.959Z,2.80
2018-12-14T12:55:57.552Z,2.80
2018-12-14T12:58:25.282Z,2.80
2018-12-14T13:00:53.055Z,2.80
2018-12-14T13:03:20.637Z,2.90
2018-12-14T13:05:48.323Z,2.90
2018-12-14T13:08:15.822Z,2.80
2018-12-14T13:10:43.478Z,2.80
2018-12-14T13:13:11.045Z,2.80
2018-12-14T13:15:38.540Z,2.80
2018-12-14T13:18:06.125Z,2.70
2018-12-14T13:20:33.773Z,2.80
2018-12-14T13:23:01.387Z,2.80
2018-12-14T13:25:28.965Z,2.80
2018-12-14T13:27:56.501Z,2.80
2018-12-14T13:30:24.007Z,2.80
2018-12-14T13:32:51.547Z,2.80
2018-12-14T13:35:19.303Z,2.80
2018-12-14T13:37:46.989Z,2.80
2018-12-14T13:40:14.616Z,2.80
2018-12-14T13:42:42.561Z,2.80
2018-12-14T13:45:10.522Z,2.80
2018-12-14T13:47:38.092Z,2.80
2018-12-14T13:50:05.833Z,2.80
2018-12-14T13:52:33.484Z,2.80
2018-12-14T13:55:01.224Z,2.80
2018-12-14T13:57:28.722Z,2.90
2018-12-14T13:59:56.368Z,2.80
2018-12-14T14:02:23.924Z,2.80
2018-12-14T14:04:51.405Z,2.80
2018-12-14T14:07:18.953Z,2.80
2018-12-14T14:09:46.576Z,2.70
2018-12-14T14:12:14.101Z,2.70
2018-12-14T14:14:41.802Z,2.60
2018-12-14T14:17:09.402Z,2.60
2018-12-14T14:19:37.058Z,2.60
2018-12-14T14:22:04.661Z,2.60
2018-12-14T14:24:32.279Z,2.60
2018-12-14T14:26:59.759Z,2.60
2018-12-14T14:29:27.424Z,2.60
2018-12-14T14:31:55.157Z,2.60
2018-12-14T14:34:22.768Z,2.60
2018-12-14T14:36:50.304Z,2.60
2018-12-14T14:39:17.876Z,2.60
2018-12-14T14:41:45.320Z,2.60
2018-12-14T14:44:12.850Z,2.60
2018-12-14T14:46:40.435Z,2.60
2018-12-14T14:49:08.019Z,2.60
2018-12-14T14:51:36.166Z,2.70
2018-12-14T14:54:03.840Z,2.60
2018-12-14T14:56:31.543Z,2.60
2018-12-14T14:58:59.090Z,2.60
2018-12-14T15:01:26.845Z,2.60
2018-12-14T15:03:54.382Z,2.60
2018-12-14T15:06:21.902Z,2.60
2018-12-14T15:08:50.118Z,2.60
2018-12-14T15:11:17.559Z,2.60
2018-12-14T15:13:45.086Z,2.60
2018-12-14T15:16:12.570Z,2.60
2018-12-14T15:18:40.070Z,2.60
2018-12-14T15:21:07.826Z,2.60
2018-12-14T15:23:35.534Z,2.60
2018-12-14T15:26:03.066Z,2.60
2018-12-14T15:28:30.732Z,2.60
2018-12-14T15:30:58.599Z,2.50
2018-12-14T15:33:25.976Z,2.50
2018-12-14T15:35:53.598Z,2.50
2018-12-14T15:38:21.226Z,2.50
2018-12-14T15:40:48.670Z,2.50
2018-12-14T15:43:16.203Z,2.50
2018-12-14T15:45:43.723Z,2.50
2018-12-14T15:48:11.291Z,2.50
2018-12-14T15:50:38.841Z,2.50
2018-12-14T15:53:06.395Z,2.40
2018-12-14T15:55:33.974Z,2.40
2018-12-14T15:58:01.730Z,2.40
2018-12-14T16:00:29.491Z,2.40
2018-12-14T16:02:57.087Z,2.40
2018-12-14T16:05:24.622Z,2.30
2018-12-14T16:07:52.135Z,2.30
2018-12-14T16:10:19.533Z,2.30
2018-12-14T16:12:47.079Z,2.30
2018-12-14T16:15:20.097Z,2.30
2018-12-14T16:17:44.564Z,2.30
2018-12-14T16:20:12.344Z,2.40
2018-12-14T16:22:40.302Z,2.50
2018-12-14T16:25:08.933Z,2.50
2018-12-14T16:27:37.907Z,2.50
2018-12-14T16:30:08.842Z,2.50
2018-12-14T16:32:36.411Z,2.50
2018-12-14T16:35:04.284Z,2.50
2018-12-14T16:37:31.774Z,2.50
2018-12-14T16:39:59.588Z,2.50
2018-12-14T16:42:27.309Z,2.50
2018-12-14T16:44:55.043Z,2.50
2018-12-14T16:47:22.579Z,2.50
2018-12-14T16:49:50.332Z,2.50
2018-12-14T16:52:17.993Z,2.50
2018-12-14T16:54:45.693Z,2.50
2018-12-14T16:57:13.339Z,2.50
2018-12-14T16:59:41.199Z,2.50
2018-12-14T17:02:08.921Z,2.50
2018-12-14T17:04:36.490Z,2.50
2018-12-14T17:07:04.499Z,2.50
2018-12-14T17:09:32.160Z,2.40
2018-12-14T17:11:59.726Z,2.40
2018-12-14T17:14:27.184Z,2.30
2018-12-14T17:16:54.744Z,2.30
2018-12-14T17:19:22.639Z,2.30
2018-12-14T17:21:50.276Z,2.30
2018-12-14T17:24:17.919Z,2.30
2018-12-14T17:26:45.986Z,2.20
2018-12-14T17:29:13.754Z,2.20
2018-12-14T17:31:41.306Z,2.20
2018-12-14T17:34:08.810Z,2.20
2018-12-14T17:36:36.270Z,2.10
2018-12-14T17:39:05.636Z,2.10
2018-12-14T17:41:33.200Z,2.10
2018-12-14T17:44:00.966Z,2.10
2018-12-14T17:46:28.490Z,2.10
2018-12-14T17:48:56.055Z,2.10
2018-12-14T17:51:23.646Z,2.10
2018-12-14T17:53:51.181Z,2.10
2018-12-14T17:56:18.786Z,2.10
2018-12-14T17:58:46.344Z,2.10
2018-12-14T18:01:13.906Z,2.10
2018-12-14T18:03:41.632Z,2.10
2018-12-14T18:06:09.206Z,2.30
2018-12-14T18:08:36.785Z,2.20
2018-12-14T18:11:04.570Z,2.30
2018-12-14T18:13:32.096Z,2.20
2018-12-14T18:15:59.679Z,2.20
2018-12-14T18:18:27.383Z,2.20
2018-12-14T18:20:54.956Z,2.20
2018-12-14T18:23:22.518Z,2.20
2018-12-14T18:25:50.032Z,2.20
2018-12-14T18:28:17.844Z,2.20
2018-12-14T18:30:45.478Z,2.20
2018-12-14T18:33:12.990Z,2.20
2018-12-14T18:35:40.552Z,2.20
2018-12-14T18:38:08.080Z,2.20
2018-12-14T18:40:35.849Z,2.20
2018-12-14T18:43:03.448Z,2.10
2018-12-14T18:45:31.001Z,2.10
2018-12-14T18:48:02.654Z,2.10
2018-12-14T18:50:30.190Z,2.10
2018-12-14T18:52:57.680Z,2.10
2018-12-14T18:55:25.250Z,2.10
2018-12-14T18:57:52.696Z,2.10
2018-12-14T19:00:20.359Z,2.10
2018-12-14T19:02:47.970Z,2.10
2018-12-14T19:05:15.595Z,2.10
2018-12-14T19:07:43.275Z,2.00
2018-12-14T19:10:10.977Z,2.00
2018-12-14T19:12:38.547Z,2.00
2018-12-14T19:15:06.548Z,2.00
2018-12-14T19:17:34.403Z,2.00
2018-12-14T19:20:02.635Z,2.00
2018-12-14T19:22:30.652Z,2.00
2018-12-14T19:24:58.244Z,2.00
2018-12-14T19:27:26.521Z,2.00
2018-12-14T19:29:54.263Z,2.00
2018-12-14T19:32:21.833Z,1.90
2018-12-14T19:34:49.478Z,1.90
2018-12-14T19:37:16.951Z,1.90
2018-12-14T19:39:44.571Z,1.90
2018-12-14T19:42:12.235Z,1.90
2018-12-14T19:44:40.143Z,1.90
2018-12-14T19:47:08.040Z,1.90
2018-12-14T19:49:35.639Z,2.00
2018-12-14T19:52:03.463Z,2.00
2018-12-14T19:54:31.411Z,2.00
2018-12-14T19:56:58.969Z,2.00
2018-12-14T19:59:26.535Z,2.00
2018-12-14T20:01:54.056Z,2.00
2018-12-14T20:04:21.911Z,2.00
2018-12-14T20:06:49.543Z,2.10
2018-12-14T20:09:17.175Z,2.10
2018-12-14T20:11:44.935Z,2.10
2018-12-14T20:14:12.632Z,2.10
2018-12-14T20:16:40.166Z,2.10
2018-12-14T20:19:07.682Z,2.10
2018-12-14T20:21:35.136Z,2.20
2018-12-14T20:24:02.717Z,2.20
2018-12-14T20:26:30.783Z,2.20
2018-12-14T20:28:58.730Z,2.20
2018-12-14T20:31:26.935Z,2.20
2018-12-14T20:33:55.165Z,2.20
2018-12-14T20:36:23.535Z,2.30
2018-12-14T20:38:52.826Z,2.20
2018-12-14T20:41:20.451Z,2.20
2018-12-14T20:43:48.505Z,2.20
2018-12-14T20:46:19.309Z,2.20
2018-12-14T20:48:45.786Z,2.20
2018-12-14T20:51:13.617Z,2.20
2018-12-14T20:53:42.380Z,2.10
2018-12-14T20:56:09.920Z,2.10
2018-12-14T20:58:37.561Z,2.10
2018-12-14T21:01:05.855Z,2.10
2018-12-14T21:03:33.457Z,2.00
2018-12-14T21:06:01.301Z,2.10
2018-12-14T21:08:32.174Z,2.10
2018-12-14T21:10:59.783Z,2.10
2018-12-14T21:13:27.305Z,2.10
2018-12-14T21:15:54.838Z,2.30
2018-12-14T21:18:22.288Z,2.10
2018-12-14T21:20:50.476Z,2.10
2018-12-14T21:23:18.142Z,2.10
2018-12-14T21:25:45.796Z,2.10
2018-12-14T21:28:13.345Z,2.20
2018-12-14T21:30:40.833Z,2.10
2018-12-14T21:33:08.762Z,2.00
2018-12-14T21:35:36.349Z,2.00
2018-12-14T21:38:03.855Z,2.00
2018-12-14T21:40:31.609Z,2.00
2018-12-14T21:42:59.253Z,2.10
2018-12-14T21:45:27.043Z,2.00
2018-12-14T21:47:54.632Z,2.00
2018-12-14T21:50:29.090Z,2.00
2018-12-14T21:52:56.682Z,2.00
2018-12-14T21:55:24.331Z,2.00
2018-12-14T21:57:52.587Z,1.90
2018-12-14T22:00:20.149Z,2.10
2018-12-14T22:02:47.900Z,1.90
2018-12-14T22:05:15.775Z,2.00
2018-12-14T22:07:43.463Z,2.00
2018-12-14T22:10:11.159Z,2.00
2018-12-14T22:12:39.108Z,1.90
2018-12-14T22:15:06.775Z,1.90
2018-12-14T22:17:35.361Z,2.00
2018-12-14T22:20:03.288Z,2.00
2018-12-14T22:22:30.883Z,1.90
2018-12-14T22:24:58.741Z,2.00
2018-12-14T22:27:26.406Z,1.90
2018-12-14T22:29:54.309Z,1.90
2018-12-14T22:32:22.226Z,1.90
2018-12-14T22:34:49.866Z,1.90
2018-12-14T22:37:17.604Z,1.70
2018-12-14T22:39:45.587Z,1.80
2018-12-14T22:42:13.436Z,1.80
2018-12-14T22:47:31.522Z,1.90
2018-12-14T22:49:59.425Z,1.90
2018-12-14T22:52:29.797Z,2.00
2018-12-14T22:54:57.525Z,2.00
2018-12-14T22:57:25.184Z,1.90
2018-12-14T22:59:52.867Z,2.00
2018-12-14T23:02:20.738Z,1.90
2018-12-14T23:04:48.320Z,1.90
2018-12-14T23:07:15.823Z,1.80
2018-12-14T23:09:43.459Z,2.00
2018-12-14T23:12:11.123Z,1.70
2018-12-14T23:14:38.941Z,1.90
2018-12-14T23:17:06.885Z,2.00
2018-12-14T23:19:34.441Z,1.90
2018-12-14T23:22:01.941Z,1.90
2018-12-14T23:24:30.755Z,1.90
2018-12-14T23:26:58.766Z,1.90
2018-12-14T23:29:26.447Z,1.90
2018-12-14T23:31:54.025Z,1.90
2018-12-14T23:34:21.757Z,1.80
2018-12-14T23:36:49.341Z,1.90
2018-12-14T23:39:17.217Z,1.90
2018-12-14T23:41:45.056Z,1.80
2018-12-14T23:44:12.937Z,1.70
2018-12-14T23:46:40.761Z,1.70
2018-12-14T23:49:08.280Z,1.70
2018-12-14T23:51:36.178Z,1.50
2018-12-14T23:54:03.830Z,1.60
2018-12-14T23:56:31.394Z,1.60
2018-12-14T23:58:58.916Z,1.60
